Mc David, Florida
Current Conditions -  °F | °C
As of 7:56 AM on Monday 20 Oct 2014 (Local Time) from KNSE Reporting Station
Few Clouds Few Clouds  
Wind Chill: 54°   Ceiling: Unl
Heat Index: 54°   Visibility: 10mi
Dew Point: 48°   Wind: 0mph
Humidity: 80%   Direction: NA
Pressure: 30.07"   Gusts: NA
Location:  30.8697°N, 87.4663°W
Report Text: KNSE 201256Z 00000KT 10SM FEW250 12/09 A3007 RMK AO2 SLP170 T01220089 $
Loading
Personal Weather Stations






























Interactive Weather Map
Tropical Storm Tracking
New forecast layout! Learn more

10-Day Weather Forecast

Advertisements
Track Severe Weather on mobile